地図

経路データ

SID SEASON NUMBER BASIN SUBBASIN NAME ISO_TIME NATURE LAT LON WMO_WIND WMO_PRES WMO_AGENCY TRACK_TYPE DIST2LAND LANDFALL IFLAG USA_AGENCY USA_ATCF_ID USA_LAT USA_LON USA_RECORD USA_STATUS USA_WIND USA_PRES USA_SSHS USA_R34_NE USA_R34_SE USA_R34_SW USA_R34_NW USA_R50_NE USA_R50_SE USA_R50_SW USA_R50_NW USA_R64_NE USA_R64_SE USA_R64_SW USA_R64_NW USA_POCI USA_ROCI USA_RMW USA_EYE TOKYO_LAT TOKYO_LON TOKYO_GRADE TOKYO_WIND TOKYO_PRES TOKYO_R50_DIR TOKYO_R50_LONG TOKYO_R50_SHORT TOKYO_R30_DIR TOKYO_R30_LONG TOKYO_R30_SHORT TOKYO_LAND CMA_LAT CMA_LON CMA_CAT CMA_WIND CMA_PRES HKO_LAT HKO_LON HKO_CAT HKO_WIND HKO_PRES NEWDELHI_LAT NEWDELHI_LON NEWDELHI_GRADE NEWDELHI_WIND NEWDELHI_PRES NEWDELHI_CI NEWDELHI_DP NEWDELHI_POCI REUNION_LAT REUNION_LON REUNION_TYPE REUNION_WIND REUNION_PRES REUNION_TNUM REUNION_CI REUNION_RMW REUNION_R34_NE REUNION_R34_SE REUNION_R34_SW REUNION_R34_NW REUNION_R50_NE REUNION_R50_SE REUNION_R50_SW REUNION_R50_NW REUNION_R64_NE REUNION_R64_SE REUNION_R64_SW REUNION_R64_NW BOM_LAT BOM_LON BOM_TYPE BOM_WIND BOM_PRES BOM_TNUM BOM_CI BOM_RMW BOM_R34_NE BOM_R34_SE BOM_R34_SW BOM_R34_NW BOM_R50_NE BOM_R50_SE BOM_R50_SW BOM_R50_NW BOM_R64_NE BOM_R64_SE BOM_R64_SW BOM_R64_NW BOM_ROCI BOM_POCI BOM_EYE BOM_POS_METHOD BOM_PRES_METHOD NADI_LAT NADI_LON NADI_CAT NADI_WIND NADI_PRES WELLINGTON_LAT WELLINGTON_LON WELLINGTON_WIND WELLINGTON_PRES DS824_LAT DS824_LON DS824_STAGE DS824_WIND DS824_PRES TD9636_LAT TD9636_LON TD9636_STAGE TD9636_WIND TD9636_PRES TD9635_LAT TD9635_LON TD9635_WIND TD9635_PRES TD9635_ROCI NEUMANN_LAT NEUMANN_LON NEUMANN_CLASS NEUMANN_WIND NEUMANN_PRES MLC_LAT MLC_LON MLC_CLASS MLC_WIND MLC_PRES USA_GUST BOM_GUST BOM_GUST_PER REUNION_GUST REUNION_GUST_PER USA_SEAHGT USA_SEARAD_NE USA_SEARAD_SE USA_SEARAD_SW USA_SEARAD_NW STORM_SPEED STORM_DIR
1948188N20088 1948 42 NI BB NOT_NAMED 1948-07-05 18:00:00 TS 20.1000 88.3000 main 151 127 O________O____ jtwc_io IO071948 20.1000 88.3000 -1 20.1000 88.3000 TC 4 290
1948188N20088 1948 42 NI BB NOT_NAMED 1948-07-05 21:00:00 TS 20.1601 88.1200 main 127 118 P________P____ IO071948 20.1601 88.1200 -1 20.1601 88.1200 TC 3 290
1948188N20088 1948 42 NI BB NOT_NAMED 1948-07-06 00:00:00 TS 20.2000 88.0000 main 118 118 O________O____ jtwc_io IO071948 20.2000 88.0000 -1 20.2000 88.0000 TC 25 1 290
1948188N20088 1948 42 NI BB NOT_NAMED 1948-07-06 03:00:00 TS 20.2066 87.9800 main 118 118 P________PO___ IO071948 20.2075 87.9775 -1 20.2075 87.9775 TC 25 20.2000 88.0000 1 0 0
1948188N20088 1948 42 NI BB NOT_NAMED 1948-07-06 06:00:00 TS 20.2032 87.9907 main 118 118 O________OP___ jtwc_io IO071948 20.2000 88.0000 -1 20.2000 88.0000 TC 25 20.2160 87.9534 1 0 0
1948188N20088 1948 42 NI BB NOT_NAMED 1948-07-06 09:00:00 TS 20.2070 87.9797 main 118 118 P________PP___ IO071948 20.2000 88.0000 -1 20.2000 88.0000 TC 25 20.2256 87.9255 1 0 0
1948188N20088 1948 42 NI BB NOT_NAMED 1948-07-06 12:00:00 TS 20.2075 87.9783 main 118 118 O________OP___ jtwc_io IO071948 20.2000 88.0000 -1 20.2000 88.0000 TC 25 20.2224 87.9348 1 0 0
1948188N20088 1948 42 NI BB NOT_NAMED 1948-07-06 15:00:00 TS 20.2000 88.0000 main 118 118 P________PO___ IO071948 20.2000 88.0000 -1 20.2000 88.0000 TC 25 20.2000 88.0000 1 1 112
1948188N20088 1948 42 NI BB NOT_NAMED 1948-07-06 18:00:00 TS 20.1861 88.0403 main 118 118 O________OP___ jtwc_io IO071948 20.2000 88.0000 -1 20.2000 88.0000 TC 25 20.1583 88.1210 1 1 108
1948188N20088 1948 42 NI BB NOT_NAMED 1948-07-06 21:00:00 TS 20.1693 88.0894 main 127 127 P________PP___ IO071948 20.1925 88.0225 -1 20.1925 88.0225 TC 25 20.1230 88.2233 1 0 106
1948188N20088 1948 42 NI BB NOT_NAMED 1948-07-07 00:00:00 TS 20.1754 88.0713 main 127 118 O________OP___ jtwc_io IO071948 20.2000 88.0000 -1 20.2000 88.0000 TC 25 20.1262 88.2140 1 1 289
1948188N20088 1948 42 NI BB NOT_NAMED 1948-07-07 03:00:00 TS 20.2028 87.9896 main 118 85 P________PO___ IO071948 20.2042 87.9844 -1 20.2042 87.9844 TC 25 20.2000 88.0000 1 5 289
1948188N20088 1948 42 NI BB NOT_NAMED 1948-07-07 06:00:00 TS 20.3240 87.6181 main 76 0 O________OP___ jtwc_io IO071948 20.3000 87.7000 -1 20.3000 87.7000 TC 25 20.3721 87.4544 1 11 289
1948188N20088 1948 42 NI BB NOT_NAMED 1948-07-07 09:00:00 TS 20.5800 86.8333 main 0 0 P________PP___ IO071948 20.5635 86.8981 -1 20.5635 86.8981 TC 25 20.6131 86.7038 1 17 290
1948188N20088 1948 42 NI BB NOT_NAMED 1948-07-07 12:00:00 TS 20.8991 85.8837 main 0 0 O________OP___ jtwc_io IO071948 20.9000 85.9000 -1 20.9000 85.9000 TC 25 20.8972 85.8510 1 18 290
1948188N20088 1948 42 NI BB NOT_NAMED 1948-07-07 15:00:00 TS 21.1998 85.0415 main 0 0 P________PO___ IO071948 21.1997 85.0623 -1 21.1997 85.0623 TC 25 21.2000 85.0000 1 16 292
1948188N20088 1948 42 NI BB NOT_NAMED 1948-07-07 18:00:00 TS 21.5013 84.2733 main 0 0 O________OP___ jtwc_io IO071948 21.5000 84.3000 -1 21.5000 84.3000 TC 25 21.5032 84.2334 1 15 294
1948188N20088 1948 42 NI BB NOT_NAMED 1948-07-07 21:00:00 TS 21.8019 83.5914 main 0 0 P________PP___ IO071948 21.8004 83.6255 -1 21.8004 83.6255 TC 25 21.8039 83.5460 1 14 296
1948188N20088 1948 42 NI BB NOT_NAMED 1948-07-08 00:00:00 TS 22.1014 82.9553 main 0 0 O________OP___ jtwc_io IO071948 22.1000 83.0000 -1 22.1000 83.0000 TC 25 22.1029 82.9106 1 13 297
1948188N20088 1948 42 NI BB NOT_NAMED 1948-07-08 03:00:00 NR 22.4000 82.3000 main 0 __________O___ IO071948 -1 TC 22.4000 82.3000 1 14 296

IBTrACS Databaseについて

本データベースは、米国NOAAが公開する1842年以降の世界の熱帯低気圧のベストトラックデータアーカイブInternational Best Track Archive for Climate Stewardship (IBTrACS)を、ウェブで閲覧しやすい形式に変換したものです。

最終更新日:2021-10-19